R. M. Thorstenson — KGCJ — position and weather

sailwx.info

Track history (hours):
 
Tides and Currents Weather Stations Pressure Air Temp Water Temp Dewpoint Dewpoint Depression Visibility Wind Speed Wind Dir Waves Ship Positions

R. M. Thorstenson

Owner: Icicle Vessel Holding, Inc., Seattle, WA. More information available from US FCC via Universal Licensing System and Coast Guard Vessel Documentation Center.

Last reported at 2016-Jan-10 18:28 UTC. Time now 2016-Feb-13 13:00 UTC.
Position N 52°17' W 128°28'.
Warning: this ship's position is 33 days out of date.

Type: Fishing. MMSI: 366577000.

Date/timePositionNaut miles runAvg speedWind from/ knotsBaromVisibWave heightAir tempDewpointWater temp
2016-Jan-10 18:28N 52°17' W 128°28'1011.3
2016-Jan-10 17:33N 52°14' W 128°13'8 7.8
2016-Jan-10 16:33N 52°07' W 128°08'9 9.0
2016-Jan-10 15:33N 52°02' W 127°56'1110.9
2016-Jan-10 14:33N 51°51' W 127°56'3610.7
2016-Jan-10 11:11N 51°15' W 127°52'711.2
2016-Jan-10 10:33N 51°08' W 127°48'1111.1
2016-Jan-10 09:33N 51°00' W 127°35'1010.0
2016-Jan-10 08:33N 50°54' W 127°23'10 9.5
2016-Jan-10 07:33N 50°49' W 127°10'6011.5
2016-Jan-10 02:20N 50°22' W 125°46'1213.1
2016-Jan-10 01:25N 50°20' W 125°27'911.0
2016-Jan-10 00:33N 50°12' W 125°22'9 9.2
2016-Jan-09 23:33N 50°04' W 125°15'8 8.3
2016-Jan-09 22:33N 49°57' W 125°07'1010.4
2016-Jan-09 21:33N 49°50' W 124°54'8 7.7
2016-Jan-09 20:33N 49°55' W 125°04'9 9.4
2016-Jan-09 19:33N 49°49' W 124°52'1010.4
2016-Jan-09 18:33N 49°43' W 124°40'1010.4
2016-Jan-09 17:33N 49°36' W 124°28'1010.2
2016-Jan-09 16:33N 49°31' W 124°14'1010.0
2016-Jan-09 15:33N 49°25' W 124°02'1010.3
2016-Jan-09 14:33N 49°19' W 123°49'1111.2
2016-Jan-09 13:33N 49°12' W 123°35'1111.2
2016-Jan-09 12:33N 49°05' W 123°22'1212.0
2016-Jan-09 11:33N 48°57' W 123°08'1212.4
2016-Jan-09 10:33N 48°49' W 122°54'1211.8
2016-Jan-09 09:33N 48°40' W 122°43'1313.2
2016-Jan-09 08:33N 48°27' W 122°44'1110.7
2016-Jan-09 07:33N 48°16' W 122°47'10 9.6
2016-Jan-09 06:33N 48°08' W 122°40'1212.0
2016-Jan-09 05:33N 47°57' W 122°32'1110.6
2016-Jan-09 04:33N 47°47' W 122°26'7 6.8
2016-Jan-09 03:33N 47°41' W 122°25'3 2.5
2016-Jan-09 02:33N 47°39' W 122°22'1 1.0
2016-Jan-09 01:33N 47°39' W 122°20'0 0.0
2016-Jan-09 00:33N 47°39' W 122°20'0 0.0
2016-Jan-08 23:28N 47°39' W 122°20'0 0.0
2016-Jan-08 22:29N 47°39' W 122°20'0 0.0
2016-Jan-08 21:29N 47°39' W 122°20'0 0.0
2016-Jan-08 20:33N 47°39' W 122°20'0 0.0
2016-Jan-08 19:33N 47°39' W 122°20'0 0.0
2016-Jan-08 18:31N 47°39' W 122°20'0 0.0
2016-Jan-08 17:32N 47°39' W 122°20'0 0.0
2016-Jan-08 16:32N 47°39' W 122°20'0 0.0
2016-Jan-08 15:33N 47°39' W 122°20'0 0.0
2016-Jan-08 14:19N 47°39' W 122°20'0 0.0
2016-Jan-08 13:31N 47°39' W 122°20'0 0.0
2016-Jan-08 12:20N 47°39' W 122°20'0 0.0
2016-Jan-08 11:32N 47°39' W 122°20'0 0.0
2016-Jan-08 10:27N 47°39' W 122°20'0 0.0
2016-Jan-08 09:28N 47°39' W 122°20'0 0.0
2016-Jan-08 08:26N 47°39' W 122°20'0 0.0
2016-Jan-08 07:23N 47°39' W 122°20'0 0.0
2016-Jan-08 06:30N 47°39' W 122°20'0 0.0
2016-Jan-08 05:25N 47°39' W 122°20'0 0.0
2016-Jan-08 04:31N 47°39' W 122°20'0 0.0
2016-Jan-08 03:32N 47°39' W 122°20'0 0.0
2016-Jan-08 02:32N 47°39' W 122°20'0 0.0
2016-Jan-08 01:33N 47°39' W 122°20'0 0.0
2016-Jan-08 00:31N 47°39' W 122°20'0 0.0
2016-Jan-07 23:31N 47°39' W 122°20'0 0.0
2016-Jan-07 22:32N 47°39' W 122°20'0 0.0
2016-Jan-07 21:33N 47°39' W 122°20'0 0.0
2016-Jan-07 20:30N 47°39' W 122°20'0 0.0
2016-Jan-07 19:28N 47°39' W 122°20'0 0.0
2016-Jan-07 18:32N 47°39' W 122°20'0 0.0
2016-Jan-07 17:32N 47°39' W 122°20'0 0.0
2016-Jan-07 16:33N 47°39' W 122°20'0 0.0
2016-Jan-07 15:33N 47°39' W 122°20'0 0.0
2016-Jan-07 14:31N 47°39' W 122°20'0 0.0
2016-Jan-07 13:32N 47°39' W 122°20'0 0.0
2016-Jan-07 12:29N 47°39' W 122°20'0 0.0
2016-Jan-07 11:33N 47°39' W 122°20'0 0.0
2016-Jan-07 10:31N 47°39' W 122°20'0 0.0
2016-Jan-07 09:31N 47°39' W 122°20'0 0.0
2016-Jan-07 08:32N 47°39' W 122°20'0 0.0
2016-Jan-07 07:33N 47°39' W 122°20'0 0.0
2016-Jan-07 06:33N 47°39' W 122°20'0 0.0
2016-Jan-07 05:31N 47°39' W 122°20'0 0.0
2016-Jan-07 04:31N 47°39' W 122°20'0 0.0
2016-Jan-07 03:32N 47°39' W 122°20'0 0.0
2016-Jan-07 02:33N 47°39' W 122°20'0 0.0
2016-Jan-07 01:30N 47°39' W 122°20'0 0.0
2016-Jan-07 00:31N 47°39' W 122°20'0 0.0
2016-Jan-06 23:29N 47°39' W 122°20'0 0.0
2016-Jan-06 22:29N 47°39' W 122°20'0 0.0
2016-Jan-06 21:30N 47°39' W 122°20'0 0.0
2016-Jan-06 20:31N 47°39' W 122°20'0 0.0
2016-Jan-06 19:31N 47°39' W 122°20'0 0.0
2016-Jan-06 18:32N 47°39' W 122°20'0 0.0
2016-Jan-06 17:26N 47°39' W 122°20'0 0.0
2016-Jan-06 16:33N 47°39' W 122°20'0 0.0
2016-Jan-06 15:28N 47°39' W 122°20'0 0.0
2016-Jan-06 14:31N 47°39' W 122°20'0 0.0
2016-Jan-06 13:32N 47°39' W 122°20'0 0.0
2016-Jan-06 12:30N 47°39' W 122°20'0 0.0
2016-Jan-06 11:33N 47°39' W 122°20'0 0.0
2016-Jan-06 10:31N 47°39' W 122°20'0 0.0
2016-Jan-06 09:32N 47°39' W 122°20'0 0.0
2016-Jan-06 08:29N 47°39' W 122°20'0 0.0
2016-Jan-06 07:33N 47°39' W 122°20'0 0.0
2016-Jan-06 06:31N 47°39' W 122°20'0 0.0
2016-Jan-06 05:31N 47°39' W 122°20'0 0.0
2016-Jan-06 04:32N 47°39' W 122°20'0 0.0
2016-Jan-06 03:32N 47°39' W 122°20'0 0.0
2016-Jan-06 02:33N 47°39' W 122°20'0 0.0
2016-Jan-06 01:31N 47°39' W 122°20'0 0.0
2016-Jan-06 00:28N 47°39' W 122°20'0 0.0
2016-Jan-05 23:32N 47°39' W 122°20'0 0.0
2016-Jan-05 22:33N 47°39' W 122°20'0 0.0
2016-Jan-05 21:33N 47°39' W 122°20'0 0.0
2016-Jan-05 20:31N 47°39' W 122°20'0 0.0
2016-Jan-05 19:32N 47°39' W 122°20'0 0.0
2016-Jan-05 18:32N 47°39' W 122°20'0 0.0
2016-Jan-05 17:24N 47°39' W 122°20'0 0.0
2016-Jan-05 16:33N 47°39' W 122°20'0 0.0
2016-Jan-05 15:31N 47°39' W 122°20'0 0.0
2016-Jan-05 14:32N 47°39' W 122°20'0 0.0
2016-Jan-05 13:32N 47°39' W 122°20'0 0.0
2016-Jan-05 12:33N 47°39' W 122°20'0 0.0
2016-Jan-05 11:28N 47°39' W 122°20'0 0.0
2016-Jan-05 10:31N 47°39' W 122°20'0 0.0
2016-Jan-05 09:32N 47°39' W 122°20'0 0.0
2016-Jan-05 08:33N 47°39' W 122°20'0 0.0
2016-Jan-05 07:33N 47°39' W 122°20'0 0.0
2016-Jan-05 06:31N 47°39' W 122°20'0 0.0
2016-Jan-05 05:29N 47°39' W 122°20'0 0.0
2016-Jan-05 04:32N 47°39' W 122°20'0 0.0
2016-Jan-05 03:33N 47°39' W 122°20'0 0.0
2016-Jan-05 02:31N 47°39' W 122°20'0 0.0
2016-Jan-05 01:31N 47°39' W 122°20'0 0.0
2016-Jan-05 00:32N 47°39' W 122°20'0 0.0
2016-Jan-04 23:33N 47°39' W 122°20'0 0.0
2016-Jan-04 22:33N 47°39' W 122°20'0 0.0
2016-Jan-04 21:31N 47°39' W 122°20'0 0.0
2016-Jan-04 20:32N 47°39' W 122°20'0 0.0
2016-Jan-04 19:29N 47°39' W 122°20'0 0.0
2016-Jan-04 18:33N 47°39' W 122°20'0 0.0
2016-Jan-04 17:34N 47°39' W 122°20'0 0.0
2016-Jan-04 16:31N 47°39' W 122°20'0 0.0
2016-Jan-04 15:32N 47°39' W 122°20'0 0.0
2016-Jan-04 14:32N 47°39' W 122°20'0 0.0
2016-Jan-04 13:33N 47°39' W 122°20'0 0.0
2016-Jan-04 12:31N 47°39' W 122°20'0 0.0
2016-Jan-04 11:31N 47°39' W 122°20'0 0.0
2016-Jan-04 10:32N 47°39' W 122°20'0 0.0
2016-Jan-04 09:33N 47°39' W 122°20'0 0.0
2016-Jan-04 08:33N 47°39' W 122°20'0 0.0
2016-Jan-04 07:31N 47°39' W 122°20'0 0.0
2016-Jan-04 06:32N 47°39' W 122°20'0 0.0
2016-Jan-04 05:32N 47°39' W 122°20'0 0.0
2016-Jan-04 04:33N 47°39' W 122°20'0 0.0
2016-Jan-04 03:31N 47°39' W 122°20'0 0.0
2016-Jan-04 02:31N 47°39' W 122°20'0 0.0
2016-Jan-04 01:32N 47°39' W 122°20'0 0.0
2016-Jan-04 00:30N 47°39' W 122°20'0 0.0
2016-Jan-03 23:33N 47°39' W 122°20'0 0.0
2016-Jan-03 22:31N 47°39' W 122°20'0 0.0
2016-Jan-03 21:32N 47°39' W 122°20'0 0.0
2016-Jan-03 20:32N 47°39' W 122°20'0 0.0
2016-Jan-03 19:33N 47°39' W 122°20'0 0.0
2016-Jan-03 18:31N 47°39' W 122°20'0 0.0
2016-Jan-03 17:31N 47°39' W 122°20'0 0.0
2016-Jan-03 16:32N 47°39' W 122°20'0 0.0
2016-Jan-03 15:33N 47°39' W 122°20'0 0.0
2016-Jan-03 14:33N 47°39' W 122°20'0 0.0
2016-Jan-03 13:31N 47°39' W 122°20'0 0.0
2016-Jan-03 12:32N 47°39' W 122°20'0 0.0
2016-Jan-03 11:32N 47°39' W 122°20'0 0.0
2016-Jan-03 10:33N 47°39' W 122°20'0 0.0
2016-Jan-03 09:31N 47°39' W 122°20'0 0.0
2016-Jan-03 08:31N 47°39' W 122°20'0 0.0
2016-Jan-03 07:32N 47°39' W 122°20'0 0.0
2016-Jan-03 06:32N 47°39' W 122°20'0 0.0
2016-Jan-03 05:30N 47°39' W 122°20'0 0.0
2016-Jan-03 04:31N 47°39' W 122°20'0 0.0
2016-Jan-03 03:31N 47°39' W 122°20'0 0.0
2016-Jan-03 02:32N 47°39' W 122°20'0 0.0
2016-Jan-03 01:33N 47°39' W 122°20'0 0.0
2016-Jan-03 00:33N 47°39' W 122°20'0 0.0
2016-Jan-02 23:31N 47°39' W 122°20'0 0.0
2016-Jan-02 22:32N 47°39' W 122°20'0 0.0
2016-Jan-02 21:32N 47°39' W 122°20'0 0.0
2016-Jan-02 20:33N 47°39' W 122°20'0 0.0
2016-Jan-02 19:31N 47°39' W 122°20'0 0.0
2016-Jan-02 18:31N 47°39' W 122°20'0 0.0
2016-Jan-02 17:15N 47°39' W 122°20'0 0.0
2016-Jan-02 16:31N 47°39' W 122°20'0 0.0
2016-Jan-02 15:32N 47°39' W 122°20'0 0.0
2016-Jan-02 14:33N 47°39' W 122°20'0 0.0
2016-Jan-02 13:33N 47°39' W 122°20'0 0.0
2016-Jan-02 12:31N 47°39' W 122°20'0 0.0
2016-Jan-02 11:32N 47°39' W 122°20'0 0.0
2016-Jan-02 10:32N 47°39' W 122°20'0 0.0
2016-Jan-02 09:27N 47°39' W 122°20'0 0.0
2016-Jan-02 08:34N 47°39' W 122°20'0 0.0
2016-Jan-02 07:31N 47°39' W 122°20'0 0.0
2016-Jan-02 06:32N 47°39' W 122°20'0 0.0
2016-Jan-02 05:32N 47°39' W 122°20'0 0.0
2016-Jan-02 04:33N 47°39' W 122°20'0 0.0
2016-Jan-02 03:31N 47°39' W 122°20'0 0.0
2016-Jan-02 02:31N 47°39' W 122°20'0 0.0
2016-Jan-02 01:32N 47°39' W 122°20'0 0.0
2016-Jan-02 00:33N 47°39' W 122°20'0 0.0
2016-Jan-01 23:33N 47°39' W 122°20'0 0.0
2016-Jan-01 22:31N 47°39' W 122°20'0 0.0
2016-Jan-01 21:32N 47°39' W 122°20'0 0.0
2016-Jan-01 20:32N 47°39' W 122°20'0 0.0
2016-Jan-01 19:30N 47°39' W 122°20'0 0.0
2016-Jan-01 18:31N 47°39' W 122°20'0 0.0
2016-Jan-01 17:31N 47°39' W 122°20'0 0.0
2016-Jan-01 16:32N 47°39' W 122°20'0 0.0
2016-Jan-01 15:33N 47°39' W 122°20'0 0.0
2016-Jan-01 14:33N 47°39' W 122°20'0 0.0
2016-Jan-01 13:31N 47°39' W 122°20'0 0.0
2016-Jan-01 12:32N 47°39' W 122°20'0 0.0
2016-Jan-01 11:32N 47°39' W 122°20'0 0.0
2016-Jan-01 10:33N 47°39' W 122°20'0 0.0
2016-Jan-01 09:31N 47°39' W 122°20'0 0.0
2016-Jan-01 08:31N 47°39' W 122°20'0 0.0
2016-Jan-01 07:32N 47°39' W 122°20'0 0.0
2016-Jan-01 06:33N 47°39' W 122°20'0 0.0
2016-Jan-01 05:33N 47°39' W 122°20'0 0.0
2016-Jan-01 04:31N 47°39' W 122°20'0 0.0
2016-Jan-01 03:31N 47°39' W 122°20'0 0.0
2016-Jan-01 02:32N 47°39' W 122°20'0 0.0
2016-Jan-01 01:33N 47°39' W 122°20'0 0.0
2016-Jan-01 00:33N 47°39' W 122°20'0 0.0
2015-Dec-31 23:31N 47°39' W 122°20'0 0.0
2015-Dec-31 22:32N 47°39' W 122°20'0 0.0
2015-Dec-31 21:32N 47°39' W 122°20'0 0.0
2015-Dec-31 20:30N 47°39' W 122°20'0 0.0
2015-Dec-31 19:31N 47°39' W 122°20'0 0.0
2015-Dec-31 18:31N 47°39' W 122°20'  
Track history (hours):
 
Tides and Currents Weather Stations Pressure Air Temp Water Temp Dewpoint Dewpoint Depression Visibility Wind Speed Wind Dir Waves Ship Positions

R. M. Thorstenson

Owner: Icicle Vessel Holding, Inc., Seattle, WA. More information available from US FCC via Universal Licensing System and Coast Guard Vessel Documentation Center.

Last reported at 2016-Jan-10 18:28 UTC. Time now 2016-Feb-13 13:00 UTC.
Position N 52°17' W 128°28'.
Warning: this ship's position is 33 days out of date.

Type: Fishing. MMSI: 366577000.

Date/timePositionNaut miles runAvg speedWind from/ knotsBaromVisibWave heightAir tempDewpointWater temp
2016-Jan-10 18:28N 52°17' W 128°28'1011.3
2016-Jan-10 17:33N 52°14' W 128°13'8 7.8
2016-Jan-10 16:33N 52°07' W 128°08'9 9.0
2016-Jan-10 15:33N 52°02' W 127°56'1110.9
2016-Jan-10 14:33N 51°51' W 127°56'3610.7
2016-Jan-10 11:11N 51°15' W 127°52'711.2
2016-Jan-10 10:33N 51°08' W 127°48'1111.1
2016-Jan-10 09:33N 51°00' W 127°35'1010.0
2016-Jan-10 08:33N 50°54' W 127°23'10 9.5
2016-Jan-10 07:33N 50°49' W 127°10'6011.5
2016-Jan-10 02:20N 50°22' W 125°46'1213.1
2016-Jan-10 01:25N 50°20' W 125°27'911.0
2016-Jan-10 00:33N 50°12' W 125°22'9 9.2
2016-Jan-09 23:33N 50°04' W 125°15'8 8.3
2016-Jan-09 22:33N 49°57' W 125°07'1010.4
2016-Jan-09 21:33N 49°50' W 124°54'8 7.7
2016-Jan-09 20:33N 49°55' W 125°04'9 9.4
2016-Jan-09 19:33N 49°49' W 124°52'1010.4
2016-Jan-09 18:33N 49°43' W 124°40'1010.4
2016-Jan-09 17:33N 49°36' W 124°28'1010.2
2016-Jan-09 16:33N 49°31' W 124°14'1010.0
2016-Jan-09 15:33N 49°25' W 124°02'1010.3
2016-Jan-09 14:33N 49°19' W 123°49'1111.2
2016-Jan-09 13:33N 49°12' W 123°35'1111.2
2016-Jan-09 12:33N 49°05' W 123°22'1212.0
2016-Jan-09 11:33N 48°57' W 123°08'1212.4
2016-Jan-09 10:33N 48°49' W 122°54'1211.8
2016-Jan-09 09:33N 48°40' W 122°43'1313.2
2016-Jan-09 08:33N 48°27' W 122°44'1110.7
2016-Jan-09 07:33N 48°16' W 122°47'10 9.6
2016-Jan-09 06:33N 48°08' W 122°40'1212.0
2016-Jan-09 05:33N 47°57' W 122°32'1110.6
2016-Jan-09 04:33N 47°47' W 122°26'7 6.8
2016-Jan-09 03:33N 47°41' W 122°25'3 2.5
2016-Jan-09 02:33N 47°39' W 122°22'1 1.0
2016-Jan-09 01:33N 47°39' W 122°20'0 0.0
2016-Jan-09 00:33N 47°39' W 122°20'0 0.0
2016-Jan-08 23:28N 47°39' W 122°20'0 0.0
2016-Jan-08 22:29N 47°39' W 122°20'0 0.0
2016-Jan-08 21:29N 47°39' W 122°20'0 0.0
2016-Jan-08 20:33N 47°39' W 122°20'0 0.0
2016-Jan-08 19:33N 47°39' W 122°20'0 0.0
2016-Jan-08 18:31N 47°39' W 122°20'0 0.0
2016-Jan-08 17:32N 47°39' W 122°20'0 0.0
2016-Jan-08 16:32N 47°39' W 122°20'0 0.0
2016-Jan-08 15:33N 47°39' W 122°20'0 0.0
2016-Jan-08 14:19N 47°39' W 122°20'0 0.0
2016-Jan-08 13:31N 47°39' W 122°20'0 0.0
2016-Jan-08 12:20N 47°39' W 122°20'0 0.0
2016-Jan-08 11:32N 47°39' W 122°20'0 0.0
2016-Jan-08 10:27N 47°39' W 122°20'0 0.0
2016-Jan-08 09:28N 47°39' W 122°20'0 0.0
2016-Jan-08 08:26N 47°39' W 122°20'0 0.0
2016-Jan-08 07:23N 47°39' W 122°20'0 0.0
2016-Jan-08 06:30N 47°39' W 122°20'0 0.0
2016-Jan-08 05:25N 47°39' W 122°20'0 0.0
2016-Jan-08 04:31N 47°39' W 122°20'0 0.0
2016-Jan-08 03:32N 47°39' W 122°20'0 0.0
2016-Jan-08 02:32N 47°39' W 122°20'0 0.0
2016-Jan-08 01:33N 47°39' W 122°20'0 0.0
2016-Jan-08 00:31N 47°39' W 122°20'0 0.0
2016-Jan-07 23:31N 47°39' W 122°20'0 0.0
2016-Jan-07 22:32N 47°39' W 122°20'0 0.0
2016-Jan-07 21:33N 47°39' W 122°20'0 0.0
2016-Jan-07 20:30N 47°39' W 122°20'0 0.0
2016-Jan-07 19:28N 47°39' W 122°20'0 0.0
2016-Jan-07 18:32N 47°39' W 122°20'0 0.0
2016-Jan-07 17:32N 47°39' W 122°20'0 0.0
2016-Jan-07 16:33N 47°39' W 122°20'0 0.0
2016-Jan-07 15:33N 47°39' W 122°20'0 0.0
2016-Jan-07 14:31N 47°39' W 122°20'0 0.0
2016-Jan-07 13:32N 47°39' W 122°20'0 0.0
2016-Jan-07 12:29N 47°39' W 122°20'0 0.0
2016-Jan-07 11:33N 47°39' W 122°20'0 0.0
2016-Jan-07 10:31N 47°39' W 122°20'0 0.0
2016-Jan-07 09:31N 47°39' W 122°20'0 0.0
2016-Jan-07 08:32N 47°39' W 122°20'0 0.0
2016-Jan-07 07:33N 47°39' W 122°20'0 0.0
2016-Jan-07 06:33N 47°39' W 122°20'0 0.0
2016-Jan-07 05:31N 47°39' W 122°20'0 0.0
2016-Jan-07 04:31N 47°39' W 122°20'0 0.0
2016-Jan-07 03:32N 47°39' W 122°20'0 0.0
2016-Jan-07 02:33N 47°39' W 122°20'0 0.0
2016-Jan-07 01:30N 47°39' W 122°20'0 0.0
2016-Jan-07 00:31N 47°39' W 122°20'0 0.0
2016-Jan-06 23:29N 47°39' W 122°20'0 0.0
2016-Jan-06 22:29N 47°39' W 122°20'0 0.0
2016-Jan-06 21:30N 47°39' W 122°20'0 0.0
2016-Jan-06 20:31N 47°39' W 122°20'0 0.0
2016-Jan-06 19:31N 47°39' W 122°20'0 0.0
2016-Jan-06 18:32N 47°39' W 122°20'0 0.0
2016-Jan-06 17:26N 47°39' W 122°20'0 0.0
2016-Jan-06 16:33N 47°39' W 122°20'0 0.0
2016-Jan-06 15:28N 47°39' W 122°20'0 0.0
2016-Jan-06 14:31N 47°39' W 122°20'0 0.0
2016-Jan-06 13:32N 47°39' W 122°20'0 0.0
2016-Jan-06 12:30N 47°39' W 122°20'0 0.0
2016-Jan-06 11:33N 47°39' W 122°20'0 0.0
2016-Jan-06 10:31N 47°39' W 122°20'0 0.0
2016-Jan-06 09:32N 47°39' W 122°20'0 0.0
2016-Jan-06 08:29N 47°39' W 122°20'0 0.0
2016-Jan-06 07:33N 47°39' W 122°20'0 0.0
2016-Jan-06 06:31N 47°39' W 122°20'0 0.0
2016-Jan-06 05:31N 47°39' W 122°20'0 0.0
2016-Jan-06 04:32N 47°39' W 122°20'0 0.0
2016-Jan-06 03:32N 47°39' W 122°20'0 0.0
2016-Jan-06 02:33N 47°39' W 122°20'0 0.0
2016-Jan-06 01:31N 47°39' W 122°20'0 0.0
2016-Jan-06 00:28N 47°39' W 122°20'0 0.0
2016-Jan-05 23:32N 47°39' W 122°20'0 0.0
2016-Jan-05 22:33N 47°39' W 122°20'0 0.0
2016-Jan-05 21:33N 47°39' W 122°20'0 0.0
2016-Jan-05 20:31N 47°39' W 122°20'0 0.0
2016-Jan-05 19:32N 47°39' W 122°20'0 0.0
2016-Jan-05 18:32N 47°39' W 122°20'0 0.0
2016-Jan-05 17:24N 47°39' W 122°20'0 0.0
2016-Jan-05 16:33N 47°39' W 122°20'0 0.0
2016-Jan-05 15:31N 47°39' W 122°20'0 0.0
2016-Jan-05 14:32N 47°39' W 122°20'0 0.0
2016-Jan-05 13:32N 47°39' W 122°20'0 0.0
2016-Jan-05 12:33N 47°39' W 122°20'0 0.0
2016-Jan-05 11:28N 47°39' W 122°20'0 0.0
2016-Jan-05 10:31N 47°39' W 122°20'0 0.0
2016-Jan-05 09:32N 47°39' W 122°20'0 0.0
2016-Jan-05 08:33N 47°39' W 122°20'0 0.0
2016-Jan-05 07:33N 47°39' W 122°20'0 0.0
2016-Jan-05 06:31N 47°39' W 122°20'0 0.0
2016-Jan-05 05:29N 47°39' W 122°20'0 0.0
2016-Jan-05 04:32N 47°39' W 122°20'0 0.0
2016-Jan-05 03:33N 47°39' W 122°20'0 0.0
2016-Jan-05 02:31N 47°39' W 122°20'0 0.0
2016-Jan-05 01:31N 47°39' W 122°20'0 0.0
2016-Jan-05 00:32N 47°39' W 122°20'0 0.0
2016-Jan-04 23:33N 47°39' W 122°20'0 0.0
2016-Jan-04 22:33N 47°39' W 122°20'0 0.0
2016-Jan-04 21:31N 47°39' W 122°20'0 0.0
2016-Jan-04 20:32N 47°39' W 122°20'0 0.0
2016-Jan-04 19:29N 47°39' W 122°20'0 0.0
2016-Jan-04 18:33N 47°39' W 122°20'0 0.0
2016-Jan-04 17:34N 47°39' W 122°20'0 0.0
2016-Jan-04 16:31N 47°39' W 122°20'0 0.0
2016-Jan-04 15:32N 47°39' W 122°20'0 0.0
2016-Jan-04 14:32N 47°39' W 122°20'0 0.0
2016-Jan-04 13:33N 47°39' W 122°20'0 0.0
2016-Jan-04 12:31N 47°39' W 122°20'0 0.0
2016-Jan-04 11:31N 47°39' W 122°20'0 0.0
2016-Jan-04 10:32N 47°39' W 122°20'0 0.0
2016-Jan-04 09:33N 47°39' W 122°20'0 0.0
2016-Jan-04 08:33N 47°39' W 122°20'0 0.0
2016-Jan-04 07:31N 47°39' W 122°20'0 0.0
2016-Jan-04 06:32N 47°39' W 122°20'0 0.0
2016-Jan-04 05:32N 47°39' W 122°20'0 0.0
2016-Jan-04 04:33N 47°39' W 122°20'0 0.0
2016-Jan-04 03:31N 47°39' W 122°20'0 0.0
2016-Jan-04 02:31N 47°39' W 122°20'0 0.0
2016-Jan-04 01:32N 47°39' W 122°20'0 0.0
2016-Jan-04 00:30N 47°39' W 122°20'0 0.0
2016-Jan-03 23:33N 47°39' W 122°20'0 0.0
2016-Jan-03 22:31N 47°39' W 122°20'0 0.0
2016-Jan-03 21:32N 47°39' W 122°20'0 0.0
2016-Jan-03 20:32N 47°39' W 122°20'0 0.0
2016-Jan-03 19:33N 47°39' W 122°20'0 0.0
2016-Jan-03 18:31N 47°39' W 122°20'0 0.0
2016-Jan-03 17:31N 47°39' W 122°20'0 0.0
2016-Jan-03 16:32N 47°39' W 122°20'0 0.0
2016-Jan-03 15:33N 47°39' W 122°20'0 0.0
2016-Jan-03 14:33N 47°39' W 122°20'0 0.0
2016-Jan-03 13:31N 47°39' W 122°20'0 0.0
2016-Jan-03 12:32N 47°39' W 122°20'0 0.0
2016-Jan-03 11:32N 47°39' W 122°20'0 0.0
2016-Jan-03 10:33N 47°39' W 122°20'0 0.0
2016-Jan-03 09:31N 47°39' W 122°20'0 0.0
2016-Jan-03 08:31N 47°39' W 122°20'0 0.0
2016-Jan-03 07:32N 47°39' W 122°20'0 0.0
2016-Jan-03 06:32N 47°39' W 122°20'0 0.0
2016-Jan-03 05:30N 47°39' W 122°20'0 0.0
2016-Jan-03 04:31N 47°39' W 122°20'0 0.0
2016-Jan-03 03:31N 47°39' W 122°20'0 0.0
2016-Jan-03 02:32N 47°39' W 122°20'0 0.0
2016-Jan-03 01:33N 47°39' W 122°20'0 0.0
2016-Jan-03 00:33N 47°39' W 122°20'0 0.0
2016-Jan-02 23:31N 47°39' W 122°20'0 0.0
2016-Jan-02 22:32N 47°39' W 122°20'0 0.0
2016-Jan-02 21:32N 47°39' W 122°20'0 0.0
2016-Jan-02 20:33N 47°39' W 122°20'0 0.0
2016-Jan-02 19:31N 47°39' W 122°20'0 0.0
2016-Jan-02 18:31N 47°39' W 122°20'0 0.0
2016-Jan-02 17:15N 47°39' W 122°20'0 0.0
2016-Jan-02 16:31N 47°39' W 122°20'0 0.0
2016-Jan-02 15:32N 47°39' W 122°20'0 0.0
2016-Jan-02 14:33N 47°39' W 122°20'0 0.0
2016-Jan-02 13:33N 47°39' W 122°20'0 0.0
2016-Jan-02 12:31N 47°39' W 122°20'0 0.0
2016-Jan-02 11:32N 47°39' W 122°20'0 0.0
2016-Jan-02 10:32N 47°39' W 122°20'0 0.0
2016-Jan-02 09:27N 47°39' W 122°20'0 0.0
2016-Jan-02 08:34N 47°39' W 122°20'0 0.0
2016-Jan-02 07:31N 47°39' W 122°20'0 0.0
2016-Jan-02 06:32N 47°39' W 122°20'0 0.0
2016-Jan-02 05:32N 47°39' W 122°20'0 0.0
2016-Jan-02 04:33N 47°39' W 122°20'0 0.0
2016-Jan-02 03:31N 47°39' W 122°20'0 0.0
2016-Jan-02 02:31N 47°39' W 122°20'0 0.0
2016-Jan-02 01:32N 47°39' W 122°20'0 0.0
2016-Jan-02 00:33N 47°39' W 122°20'0 0.0
2016-Jan-01 23:33N 47°39' W 122°20'0 0.0
2016-Jan-01 22:31N 47°39' W 122°20'0 0.0
2016-Jan-01 21:32N 47°39' W 122°20'0 0.0
2016-Jan-01 20:32N 47°39' W 122°20'0 0.0
2016-Jan-01 19:30N 47°39' W 122°20'0 0.0
2016-Jan-01 18:31N 47°39' W 122°20'0 0.0
2016-Jan-01 17:31N 47°39' W 122°20'0 0.0
2016-Jan-01 16:32N 47°39' W 122°20'0 0.0
2016-Jan-01 15:33N 47°39' W 122°20'0 0.0
2016-Jan-01 14:33N 47°39' W 122°20'0 0.0
2016-Jan-01 13:31N 47°39' W 122°20'0 0.0
2016-Jan-01 12:32N 47°39' W 122°20'0 0.0
2016-Jan-01 11:32N 47°39' W 122°20'0 0.0
2016-Jan-01 10:33N 47°39' W 122°20'0 0.0
2016-Jan-01 09:31N 47°39' W 122°20'0 0.0
2016-Jan-01 08:31N 47°39' W 122°20'0 0.0
2016-Jan-01 07:32N 47°39' W 122°20'0 0.0
2016-Jan-01 06:33N 47°39' W 122°20'0 0.0
2016-Jan-01 05:33N 47°39' W 122°20'0 0.0
2016-Jan-01 04:31N 47°39' W 122°20'0 0.0
2016-Jan-01 03:31N 47°39' W 122°20'0 0.0
2016-Jan-01 02:32N 47°39' W 122°20'0 0.0
2016-Jan-01 01:33N 47°39' W 122°20'0 0.0
2016-Jan-01 00:33N 47°39' W 122°20'0 0.0
2015-Dec-31 23:31N 47°39' W 122°20'0 0.0
2015-Dec-31 22:32N 47°39' W 122°20'0 0.0
2015-Dec-31 21:32N 47°39' W 122°20'0 0.0
2015-Dec-31 20:30N 47°39' W 122°20'0 0.0
2015-Dec-31 19:31N 47°39' W 122°20'0 0.0
2015-Dec-31 18:31N 47°39' W 122°20'  

Dump ship's entire track history